createdAt,value
2019-01-09T00:00:16.856Z,100288.80
2019-01-09T00:02:46.146Z,100284.98
2019-01-09T00:05:15.514Z,100287.66
2019-01-09T00:07:44.801Z,100307.49
2019-01-09T00:10:14.522Z,100304.95
2019-01-09T00:12:43.816Z,100217.69
2019-01-09T00:15:13.286Z,100318.73
2019-01-09T00:17:42.586Z,100284.77
2019-01-09T00:20:12.225Z,100327.52
2019-01-09T00:22:41.567Z,100333.62
2019-01-09T00:25:11.205Z,100329.19
2019-01-09T00:27:40.489Z,100334.39
2019-01-09T00:35:39.795Z,100340.89
2019-01-09T00:38:09.323Z,100354.36
2019-01-09T00:40:58.047Z,100358.63
2019-01-09T00:46:02.627Z,100342.20
2019-01-09T00:48:32.077Z,100359.91
2019-01-09T00:51:01.428Z,100369.44
2019-01-09T00:53:30.776Z,100385.08
2019-01-09T00:56:00.055Z,100345.09
2019-01-09T00:58:29.366Z,100376.75
2019-01-09T01:00:58.709Z,100397.09
2019-01-09T01:04:05.996Z,100403.59
2019-01-09T01:10:40.900Z,100336.52
2019-01-09T01:13:48.199Z,100403.71
2019-01-09T01:16:55.702Z,100409.92
2019-01-09T01:19:52.706Z,100434.24
2019-01-09T01:23:00.224Z,100444.07
2019-01-09T01:26:10.470Z,100437.48
2019-01-09T01:29:17.798Z,100449.56
2019-01-09T01:32:25.109Z,100455.55
2019-01-09T01:35:17.854Z,100474.70
2019-01-09T01:38:28.019Z,100463.30
2019-01-09T01:41:35.326Z,100382.02
2019-01-09T01:44:15.034Z,100490.95
2019-01-09T01:47:22.330Z,100484.05
2019-01-09T01:50:16.244Z,100484.08
2019-01-09T01:52:55.061Z,100474.56
2019-01-09T01:56:02.366Z,100491.06
2019-01-09T01:58:54.447Z,100493.67
2019-01-09T02:02:10.663Z,100502.37
2019-01-09T02:05:12.259Z,100506.30
2019-01-09T02:11:28.747Z,100520.70
2019-01-09T02:14:20.765Z,100531.92
2019-01-09T02:17:28.066Z,100524.23
2019-01-09T02:20:38.225Z,100528.45
2019-01-09T02:23:45.525Z,100536.58
2019-01-09T02:26:41.422Z,100537.08
2019-01-09T02:29:48.951Z,100546.28
2019-01-09T02:32:37.288Z,100544.77
2019-01-09T02:35:06.703Z,100555.98
2019-01-09T02:37:35.986Z,100565.88
2019-01-09T02:40:05.711Z,100562.79
2019-01-09T02:42:35.000Z,100569.25
2019-01-09T02:47:59.387Z,100571.80
2019-01-09T02:50:28.666Z,100559.86
2019-01-09T02:52:58.374Z,100581.80
2019-01-09T02:55:27.687Z,100544.19
2019-01-09T02:57:57.366Z,100584.45
2019-01-09T03:00:28.251Z,100604.39
2019-01-09T03:05:45.881Z,100603.61
2019-01-09T03:08:15.171Z,100593.25
2019-01-09T03:10:44.432Z,100594.19
2019-01-09T03:13:13.766Z,100600.23
2019-01-09T03:15:43.197Z,100613.23
2019-01-09T03:18:12.523Z,100604.84
2019-01-09T03:23:16.262Z,100622.06
2019-01-09T03:25:45.571Z,100618.13
2019-01-09T03:28:15.198Z,100627.30
2019-01-09T03:30:44.519Z,100639.38
2019-01-09T03:33:14.121Z,100643.78
2019-01-09T03:35:43.402Z,100645.92
2019-01-09T03:40:47.733Z,100632.63
2019-01-09T03:43:17.084Z,100643.94
2019-01-09T03:48:34.950Z,100656.14
2019-01-09T03:51:04.231Z,100660.97
2019-01-09T03:53:33.910Z,100666.63
2019-01-09T03:56:03.245Z,100660.58
2019-01-09T03:58:32.637Z,100660.53
2019-01-09T04:01:20.989Z,100660.62
2019-01-09T04:03:50.322Z,100489.62
2019-01-09T04:06:19.740Z,100666.70
2019-01-09T04:08:49.045Z,100664.96
2019-01-09T04:11:18.393Z,100681.45
2019-01-09T04:13:47.681Z,100678.00
2019-01-09T04:16:17.015Z,100687.09
2019-01-09T04:18:46.339Z,100694.49
2019-01-09T04:21:15.698Z,100700.58
2019-01-09T04:23:45.033Z,100695.02
2019-01-09T04:26:14.354Z,100707.55
2019-01-09T04:28:43.698Z,100705.81
2019-01-09T04:31:13.002Z,100694.73
2019-01-09T04:33:42.363Z,100718.85
2019-01-09T04:38:59.911Z,100719.78
2019-01-09T04:41:29.256Z,100726.73
2019-01-09T04:43:58.594Z,100685.51
2019-01-09T04:46:46.898Z,100741.02
2019-01-09T04:51:51.886Z,100690.73
2019-01-09T04:54:21.354Z,100759.28
2019-01-09T04:56:50.770Z,100737.19
2019-01-09T04:59:20.072Z,100755.83
2019-01-09T05:01:49.542Z,100729.56
2019-01-09T05:04:18.837Z,100699.59
2019-01-09T05:06:48.267Z,100767.93
2019-01-09T05:09:17.538Z,100785.67
2019-01-09T05:11:47.083Z,100777.08
2019-01-09T05:14:16.418Z,100790.97
2019-01-09T05:16:46.049Z,100786.62
2019-01-09T05:19:15.404Z,100792.73
2019-01-09T05:21:44.746Z,100797.96
2019-01-09T05:24:14.045Z,100796.25
2019-01-09T05:26:43.509Z,100793.67
2019-01-09T05:29:12.800Z,100810.08
2019-01-09T05:31:42.253Z,100807.52
2019-01-09T05:34:11.608Z,100733.55
2019-01-09T05:36:41.285Z,100813.15
2019-01-09T05:39:39.414Z,100767.12
2019-01-09T05:42:02.065Z,100824.02
2019-01-09T05:44:31.480Z,100834.83
2019-01-09T05:47:00.815Z,100831.35
2019-01-09T05:49:30.601Z,100849.97
2019-01-09T05:51:59.872Z,100838.74
2019-01-09T05:54:29.195Z,100852.59
2019-01-09T05:56:58.506Z,100857.76
2019-01-09T05:59:28.069Z,100857.76
2019-01-09T06:01:57.358Z,100869.50
2019-01-09T06:04:26.768Z,100867.30
2019-01-09T06:07:18.549Z,100875.97
2019-01-09T06:09:46.067Z,100888.08
2019-01-09T06:12:15.410Z,100891.58
2019-01-09T06:14:44.681Z,100833.03
2019-01-09T06:17:14.192Z,100893.27
2019-01-09T06:19:43.562Z,100886.75
2019-01-09T06:22:13.406Z,100903.22
2019-01-09T06:24:43.065Z,100896.34
2019-01-09T06:27:15.091Z,100898.97
2019-01-09T06:30:06.328Z,100862.42
2019-01-09T06:32:36.360Z,100899.02
2019-01-09T06:35:05.698Z,100906.78
2019-01-09T06:38:14.681Z,100909.81
2019-01-09T06:40:44.291Z,100836.22
2019-01-09T06:43:14.145Z,100924.13
2019-01-09T06:45:44.036Z,100920.30
2019-01-09T06:48:13.867Z,100929.71
2019-01-09T06:51:22.656Z,100902.27
2019-01-09T06:54:11.462Z,100953.11
2019-01-09T06:56:41.997Z,100954.86
2019-01-09T06:59:11.819Z,100965.66
2019-01-09T07:04:29.567Z,100970.02
2019-01-09T07:06:58.899Z,100975.21
2019-01-09T07:09:28.305Z,100973.13
2019-01-09T07:11:57.614Z,100994.75
2019-01-09T07:14:26.903Z,100998.20
2019-01-09T07:22:12.096Z,101009.47
2019-01-09T07:24:41.536Z,101010.75
2019-01-09T07:27:11.059Z,101010.33
2019-01-09T07:29:40.356Z,101018.97
2019-01-09T07:32:09.802Z,101018.14
2019-01-09T07:34:39.114Z,101024.20
2019-01-09T07:37:08.677Z,101034.56
2019-01-09T07:39:37.971Z,101031.94
2019-01-09T07:42:07.374Z,101037.15
2019-01-09T07:44:36.761Z,101040.64
2019-01-09T07:47:06.176Z,101044.95
2019-01-09T07:49:35.627Z,101056.20
2019-01-09T07:52:05.227Z,101057.52
2019-01-09T07:54:53.710Z,101057.95
2019-01-09T07:57:23.005Z,101062.31
2019-01-09T08:00:11.308Z,101069.64
2019-01-09T08:02:40.742Z,101080.91
2019-01-09T08:05:10.050Z,101088.27
2019-01-09T08:07:39.343Z,101087.81
2019-01-09T08:10:10.125Z,101090.00
2019-01-09T08:15:33.016Z,101089.99
2019-01-09T08:18:02.320Z,101097.77
2019-01-09T08:20:31.597Z,101098.17
2019-01-09T08:23:00.887Z,101097.74
2019-01-09T08:25:30.409Z,101098.59
2019-01-09T08:27:59.697Z,101098.20
2019-01-09T08:30:29.312Z,101107.68
2019-01-09T08:32:58.627Z,101105.59
2019-01-09T08:35:28.198Z,101118.53
2019-01-09T08:40:32.503Z,101134.56
2019-01-09T08:45:38.269Z,101133.23
2019-01-09T08:48:07.554Z,101134.12
2019-01-09T08:53:12.140Z,101138.44
2019-01-09T08:55:41.429Z,101147.09
2019-01-09T08:58:11.038Z,101154.88
2019-01-09T09:00:40.335Z,101159.61
2019-01-09T09:05:58.301Z,101153.58
2019-01-09T09:11:36.389Z,101161.80
2019-01-09T09:14:26.158Z,101165.25
2019-01-09T09:17:07.490Z,101173.89
2019-01-09T09:19:48.507Z,101181.68
2019-01-09T09:22:17.781Z,101192.05
2019-01-09T09:24:47.474Z,101186.86
2019-01-09T09:27:35.770Z,101196.41
2019-01-09T09:33:19.767Z,101205.89
2019-01-09T09:35:49.062Z,101214.55
2019-01-09T09:38:20.744Z,101226.24
2019-01-09T09:40:49.447Z,101176.95
2019-01-09T09:43:18.729Z,101229.67
2019-01-09T09:45:48.003Z,101231.82
2019-01-09T09:48:17.330Z,101243.94
2019-01-09T09:50:46.664Z,101240.03
2019-01-09T09:53:15.964Z,101234.41
2019-01-09T09:55:45.251Z,101233.52
2019-01-09T09:58:14.679Z,101241.28
2019-01-09T10:00:43.961Z,101233.94
2019-01-09T10:03:13.232Z,101246.90
2019-01-09T10:05:42.573Z,101249.95
2019-01-09T10:08:11.885Z,101248.62
2019-01-09T10:10:41.196Z,101243.84
2019-01-09T10:13:29.560Z,101253.82
2019-01-09T10:15:59.096Z,101258.13
2019-01-09T10:18:28.417Z,101262.90
2019-01-09T10:21:16.785Z,101275.88
2019-01-09T10:23:46.165Z,101272.81
2019-01-09T10:26:15.488Z,101178.20
2019-01-09T10:28:45.180Z,101283.19
2019-01-09T10:31:14.473Z,101279.73
2019-01-09T10:33:44.050Z,101294.05
2019-01-09T10:36:13.385Z,101290.11
2019-01-09T10:38:44.564Z,101296.61
2019-01-09T10:41:33.118Z,101304.36
2019-01-09T10:44:21.372Z,101304.36
2019-01-09T10:49:25.590Z,101304.67
2019-01-09T10:51:55.126Z,101307.70
2019-01-09T10:54:24.438Z,101309.41
2019-01-09T10:56:53.811Z,101309.39
2019-01-09T10:59:23.200Z,101313.34
2019-01-09T11:01:52.766Z,101325.05
2019-01-09T11:04:22.046Z,101321.61
2019-01-09T11:06:51.748Z,101310.73
2019-01-09T11:09:21.079Z,101309.44
2019-01-09T11:11:50.447Z,101306.41
2019-01-09T11:14:19.773Z,101222.61
2019-01-09T11:16:49.400Z,101322.44
2019-01-09T11:19:18.730Z,101291.75
2019-01-09T11:21:48.183Z,101332.31
2019-01-09T11:24:17.493Z,101338.34
2019-01-09T11:26:46.906Z,101339.63
2019-01-09T11:29:16.210Z,101344.02
2019-01-09T11:31:45.868Z,101340.55
2019-01-09T11:34:15.160Z,101344.03
2019-01-09T11:36:44.730Z,101343.15
2019-01-09T11:39:14.023Z,101343.56
2019-01-09T11:41:43.330Z,101353.53
2019-01-09T11:44:12.628Z,101344.02
2019-01-09T11:46:42.262Z,101356.13
2019-01-09T11:49:30.637Z,101353.52
2019-01-09T11:52:11.910Z,101358.72
2019-01-09T11:54:41.707Z,101359.58
2019-01-09T11:57:12.230Z,101358.53
2019-01-09T11:59:41.672Z,101349.47
2019-01-09T12:02:11.070Z,101361.42
2019-01-09T12:04:40.356Z,101374.46
2019-01-09T12:07:21.732Z,101350.72
2019-01-09T12:09:51.038Z,101353.20
2019-01-09T12:12:20.333Z,101366.37
2019-01-09T12:14:49.681Z,101338.28
2019-01-09T12:17:19.189Z,101362.93
2019-01-09T12:20:07.490Z,101375.03
2019-01-09T12:22:36.776Z,101395.03
2019-01-09T12:25:07.493Z,101389.85
2019-01-09T12:27:36.856Z,101351.86
2019-01-09T12:33:20.972Z,101397.70
2019-01-09T12:35:50.317Z,101376.05
2019-01-09T12:38:19.590Z,101398.61
2019-01-09T12:41:07.957Z,101403.83
2019-01-09T12:43:37.233Z,101403.84
2019-01-09T12:46:25.581Z,101396.04
2019-01-09T12:48:55.257Z,101400.36
2019-01-09T12:51:24.538Z,101358.02
2019-01-09T12:53:54.056Z,101413.40
2019-01-09T12:56:27.580Z,101404.72
2019-01-09T13:01:53.310Z,101409.93
2019-01-09T13:04:24.148Z,101412.55
2019-01-09T13:10:04.487Z,101410.83
2019-01-09T13:12:55.776Z,101408.66
2019-01-09T13:15:28.304Z,101408.23
2019-01-09T13:21:08.330Z,101426.08
2019-01-09T13:23:37.683Z,101432.16
2019-01-09T13:26:27.164Z,101425.66
2019-01-09T13:29:07.811Z,101427.38
2019-01-09T13:39:48.954Z,101442.16
2019-01-09T13:42:40.352Z,101432.63
2019-01-09T13:45:12.470Z,101434.36
2019-01-09T13:47:44.176Z,101436.96
2019-01-09T13:50:14.065Z,101339.62
2019-01-09T13:53:02.592Z,101372.09
2019-01-09T13:55:33.346Z,101437.84
2019-01-09T13:58:06.118Z,101448.25
2019-01-09T14:00:54.859Z,101450.86
2019-01-09T14:04:02.457Z,101457.80
2019-01-09T14:06:51.854Z,101465.59
2019-01-09T14:09:40.623Z,101474.30
2019-01-09T14:12:31.897Z,101479.94
2019-01-09T14:18:20.918Z,101483.01
2019-01-09T14:20:50.209Z,101485.63
2019-01-09T14:23:19.741Z,101491.25
2019-01-09T14:25:49.098Z,101503.84
2019-01-09T14:28:18.364Z,101494.27
2019-01-09T14:30:47.677Z,101510.77
2019-01-09T14:33:17.066Z,101503.39
2019-01-09T14:35:46.452Z,101508.17
2019-01-09T14:38:15.888Z,101511.20
2019-01-09T14:40:45.220Z,101511.25
2019-01-09T14:43:14.688Z,101510.38
2019-01-09T14:45:43.963Z,101509.95
2019-01-09T14:48:13.389Z,101518.59
2019-01-09T14:50:42.661Z,101526.41
2019-01-09T14:53:12.010Z,101536.81
2019-01-09T14:55:41.528Z,101548.09
2019-01-09T14:58:10.933Z,101551.99
2019-01-09T15:00:40.201Z,101553.72
2019-01-09T15:03:09.500Z,101550.69
2019-01-09T15:05:38.872Z,101561.52
2019-01-09T15:08:08.171Z,101563.70
2019-01-09T15:10:37.702Z,101567.17
2019-01-09T15:13:07.043Z,101526.42
2019-01-09T15:15:36.431Z,101575.81
2019-01-09T15:18:06.271Z,101535.06
2019-01-09T15:20:35.594Z,101571.91
2019-01-09T15:23:04.929Z,101581.00
2019-01-09T15:25:34.499Z,101580.15
2019-01-09T15:30:38.940Z,101578.84
2019-01-09T15:33:08.316Z,101590.55
2019-01-09T15:35:37.697Z,101597.45
2019-01-09T15:38:07.521Z,101604.40
2019-01-09T15:40:36.842Z,101559.25
2019-01-09T15:43:06.374Z,101613.03
2019-01-09T15:45:35.663Z,101607.83
2019-01-09T15:48:05.439Z,101605.23
2019-01-09T15:50:34.722Z,101606.11
2019-01-09T15:53:04.472Z,101603.92
2019-01-09T15:55:33.848Z,101569.63
2019-01-09T15:58:03.279Z,101633.80
2019-01-09T16:00:53.331Z,101636.39
2019-01-09T16:03:22.655Z,101647.65
2019-01-09T16:05:52.311Z,101644.16
2019-01-09T16:08:21.607Z,101596.01
2019-01-09T16:10:51.032Z,101651.52
2019-01-09T16:13:20.333Z,101562.98
2019-01-09T16:18:25.307Z,101660.61
2019-01-09T16:20:54.656Z,101618.91
2019-01-09T16:23:24.147Z,101667.11
2019-01-09T16:25:53.452Z,101619.78
2019-01-09T16:28:23.059Z,101662.32
2019-01-09T16:31:13.479Z,101657.11
2019-01-09T16:33:42.794Z,101661.00
2019-01-09T16:36:12.252Z,101669.21
2019-01-09T16:38:41.553Z,101672.66
2019-01-09T16:41:10.997Z,101669.59
2019-01-09T16:43:40.292Z,101676.52
2019-01-09T16:46:28.681Z,101674.33
2019-01-09T16:48:58.231Z,101681.70
2019-01-09T16:51:27.590Z,101670.84
2019-01-09T16:53:56.980Z,101679.91
2019-01-09T16:56:26.328Z,101684.66
2019-01-09T16:58:55.933Z,101671.66
2019-01-09T17:01:25.545Z,101629.94
2019-01-09T17:04:13.929Z,101682.92
2019-01-09T17:06:43.584Z,101688.93
2019-01-09T17:12:01.178Z,101688.88
2019-01-09T17:14:30.788Z,101686.25
2019-01-09T17:17:19.134Z,101688.01
2019-01-09T17:22:36.780Z,101693.56
2019-01-09T17:25:07.283Z,101691.84
2019-01-09T17:27:36.611Z,101694.44
2019-01-09T17:30:09.593Z,101693.11
2019-01-09T17:32:38.934Z,101618.30
2019-01-09T17:35:27.290Z,101700.88
2019-01-09T17:38:16.178Z,101698.70
2019-01-09T17:41:04.918Z,101684.37
2019-01-09T17:43:34.250Z,101716.42
2019-01-09T17:46:03.613Z,101715.53
2019-01-09T17:48:33.031Z,101722.45
2019-01-09T17:51:02.381Z,101721.58
2019-01-09T17:56:06.721Z,101718.94
2019-01-09T17:58:36.040Z,101704.98
2019-01-09T18:01:05.403Z,101714.59
2019-01-09T18:03:34.776Z,101714.53
2019-01-09T18:06:04.452Z,101724.91
2019-01-09T18:08:33.752Z,101716.27
2019-01-09T18:11:03.409Z,101719.70
2019-01-09T18:13:32.924Z,101707.48
2019-01-09T18:16:02.561Z,101723.96
2019-01-09T18:18:31.860Z,101728.73
2019-01-09T18:21:03.952Z,101725.26
2019-01-09T18:23:33.367Z,101722.23
2019-01-09T18:26:02.806Z,101718.77
2019-01-09T18:28:32.225Z,101716.16
2019-01-09T18:31:38.989Z,101725.17
2019-01-09T18:34:46.288Z,101735.13
2019-01-09T18:37:53.606Z,101745.53
2019-01-09T18:40:47.645Z,101740.34
2019-01-09T18:43:49.480Z,101730.33
2019-01-09T18:46:56.928Z,101745.94
2019-01-09T18:49:38.380Z,101753.27
2019-01-09T18:52:29.787Z,101752.37
2019-01-09T18:54:59.410Z,101746.37
2019-01-09T18:57:28.749Z,101719.27
2019-01-09T18:59:58.530Z,101763.64
2019-01-09T19:02:27.902Z,101761.91
2019-01-09T19:04:57.535Z,101764.06
2019-01-09T19:07:26.950Z,101687.98
2019-01-09T19:09:56.518Z,101751.52
2019-01-09T19:15:14.533Z,101761.02
2019-01-09T19:17:43.942Z,101754.07
2019-01-09T19:20:32.448Z,101759.69
2019-01-09T19:23:01.777Z,101769.63
2019-01-09T19:25:31.482Z,101773.48
2019-01-09T19:28:00.856Z,101789.45
2019-01-09T19:30:31.263Z,101793.73
2019-01-09T19:33:02.307Z,101791.16
2019-01-09T19:35:31.674Z,101793.77
2019-01-09T19:38:01.015Z,101795.50
2019-01-09T19:40:30.436Z,101791.61
2019-01-09T19:42:59.754Z,101811.02
2019-01-09T19:45:29.484Z,101801.44
2019-01-09T19:47:58.845Z,101801.44
2019-01-09T19:50:28.426Z,101804.02
2019-01-09T19:52:57.753Z,101748.36
2019-01-09T19:55:27.396Z,101805.76
2019-01-09T19:57:56.721Z,101768.63
2019-01-09T20:00:26.919Z,101819.94
2019-01-09T20:02:56.239Z,101811.28
2019-01-09T20:05:25.598Z,101812.64
2019-01-09T20:07:55.012Z,101816.03
2019-01-09T20:10:26.609Z,101823.79
2019-01-09T20:12:56.050Z,101817.70
2019-01-09T20:15:25.430Z,101818.61
2019-01-09T20:18:34.099Z,101820.26
2019-01-09T20:23:32.000Z,101819.40
2019-01-09T20:26:01.393Z,101822.38
2019-01-09T20:28:30.942Z,101835.30
2019-01-09T20:31:00.837Z,101838.33
2019-01-09T20:33:30.169Z,101838.36
2019-01-09T20:36:18.711Z,101831.89
2019-01-09T20:38:47.990Z,101837.93
2019-01-09T20:41:17.354Z,101841.38
2019-01-09T20:43:46.850Z,101853.03
2019-01-09T20:46:35.147Z,101843.94
2019-01-09T20:52:00.200Z,101837.37
2019-01-09T20:54:29.542Z,101852.06
2019-01-09T20:59:54.320Z,101847.67
2019-01-09T21:02:42.657Z,101845.45
2019-01-09T21:05:15.313Z,101850.64
2019-01-09T21:07:45.005Z,101841.09
2019-01-09T21:10:14.580Z,101842.39
2019-01-09T21:12:44.225Z,101842.36
2019-01-09T21:15:14.690Z,101844.98
2019-01-09T21:17:44.190Z,101845.83
2019-01-09T21:20:53.877Z,101844.08
2019-01-09T21:23:23.379Z,101844.93
2019-01-09T21:25:52.692Z,101748.66
2019-01-09T21:28:22.245Z,101853.53
2019-01-09T21:30:51.563Z,101790.86
2019-01-09T21:33:21.486Z,101852.66
2019-01-09T21:35:51.119Z,101860.44
2019-01-09T21:38:20.416Z,101855.25
2019-01-09T21:40:49.771Z,101858.21
2019-01-09T21:43:19.438Z,101852.48
2019-01-09T21:45:48.756Z,101853.35
2019-01-09T21:48:18.517Z,101851.63
2019-01-09T21:51:07.206Z,101849.47
2019-01-09T21:53:36.509Z,101854.21
2019-01-09T21:56:06.524Z,101850.72
2019-01-09T21:58:35.852Z,101853.30
2019-01-09T22:01:05.725Z,101849.38
2019-01-09T22:03:35.074Z,101800.98
2019-01-09T22:06:23.725Z,101852.78
2019-01-09T22:08:53.396Z,101848.84
2019-01-09T22:11:22.718Z,101851.02
2019-01-09T22:13:52.563Z,101845.41
2019-01-09T22:16:21.912Z,101850.52
2019-01-09T22:21:39.876Z,101776.34
2019-01-09T22:24:09.257Z,101847.31
2019-01-09T22:26:38.748Z,101845.97
2019-01-09T22:29:08.060Z,101835.56
2019-01-09T22:34:26.196Z,101794.45
2019-01-09T22:36:55.579Z,101833.73
2019-01-09T22:39:25.091Z,101834.59
2019-01-09T22:41:54.431Z,101828.50
2019-01-09T22:44:23.931Z,101831.48
2019-01-09T22:46:53.298Z,101843.10
2019-01-09T22:49:22.782Z,101840.48
2019-01-09T22:51:52.130Z,101840.96
2019-01-09T22:54:40.478Z,101849.16
2019-01-09T22:57:10.181Z,101851.36
2019-01-09T22:59:58.472Z,101852.19
2019-01-09T23:02:29.562Z,101858.61
2019-01-09T23:04:59.774Z,101838.66
2019-01-09T23:07:29.103Z,101849.81
2019-01-09T23:09:58.667Z,101846.26
2019-01-09T23:12:27.977Z,101850.25
2019-01-09T23:14:57.359Z,101845.57
2019-01-09T23:17:26.689Z,101784.05
2019-01-09T23:19:56.475Z,101838.66
2019-01-09T23:22:25.874Z,101834.39
2019-01-09T23:24:55.369Z,101831.72
2019-01-09T23:27:24.699Z,101840.31
2019-01-09T23:29:54.136Z,101839.02
2019-01-09T23:32:23.462Z,101784.16
2019-01-09T23:34:53.283Z,101837.83
2019-01-09T23:37:22.579Z,101832.19
2019-01-09T23:39:52.259Z,101829.23
2019-01-09T23:42:30.022Z,101834.02
2019-01-09T23:44:53.084Z,101836.22
2019-01-09T23:47:22.426Z,101839.24
2019-01-09T23:49:51.985Z,101847.02
2019-01-09T23:52:21.299Z,101840.98
2019-01-09T23:54:50.906Z,101836.22
2019-01-09T23:57:20.217Z,101847.41
2019-01-09T23:59:49.952Z,101846.47
